Time;durP1;ratioP1;P1;durP2;ratioP2;P2;SDS_P1;SDS_P2;PMS_P1;PMS_P2;Temp;Humidity;BMP_temperature;BMP_pressure;BME280_temperature;BME280_humidity;BME280_pressure;Samples;Min_cycle;Max_cycle;Signal;HPM_P1;HPM_P2
2021/07/12 08:22:24;;;;;;;;;;;;;;;;;;;;;
2021/07/12 08:25:07;;;;;;;8.38;5.32;;;;;;;25.35;38.28;99012.56;4841602;29;20049;-81
2021/07/12 08:28:07;;;;;;;6.05;4.53;;;;;;;25.66;35.94;99032.66;4829122;29;20111;-81
2021/07/12 08:30:33;;;;;;;7.47;4.70;;;;;;;25.23;37.15;98997.09;4808929;29;20046;-77
2021/07/12 08:32:59;;;;;;;5.38;4.82;;;;;;;24.85;38.34;99019.94;4808484;29;20140;-80
2021/07/12 08:35:25;;;;;;;9.65;4.90;;;;;;;24.92;37.97;99032.47;4780613;29;20256;-79
2021/07/12 08:37:51;;;;;;;6.78;4.40;;;;;;;24.64;37.18;99043.03;4812165;29;20166;-79
2021/07/12 08:40:28;;;;;;;6.05;4.57;;;;;;;24.98;36.59;99013.53;4813116;29;20042;-79
2021/07/12 08:43:03;;;;;;;8.15;4.60;;;;;;;25.35;35.40;99004.34;4815414;29;20493;-78
2021/07/12 08:45:29;;;;;;;5.75;4.80;;;;;;;25.37;35.45;98984.97;4812769;29;20085;-80
2021/07/12 08:48:00;;;;;;;6.07;5.07;;;;;;;25.48;35.17;99008.00;4827521;29;20053;-79
2021/07/12 08:50:30;;;;;;;6.03;4.50;;;;;;;25.81;35.33;99013.97;4813210;29;20125;-78
2021/07/12 08:52:56;;;;;;;8.10;4.85;;;;;;;26.01;34.67;98996.44;4797294;29;20073;-78
2021/07/12 08:55:24;;;;;;;7.55;5.07;;;;;;;26.33;34.54;99011.56;4796174;29;20042;-78
2021/07/12 08:58:00;;;;;;;7.07;4.63;;;;;;;26.01;34.60;99018.34;4827137;29;20156;-78
2021/07/12 09:00:50;;;;;;;8.73;4.55;;;;;;;25.30;36.73;99025.22;4827757;29;20060;-79
2021/07/12 09:03:20;;;;;;;5.43;4.43;;;;;;;25.33;36.12;99027.53;4828055;29;20160;-76
2021/07/12 09:05:59;;;;;;;13.40;4.70;;;;;;;24.64;36.64;99023.91;4827727;29;20057;-80
2021/07/12 09:08:54;;;;;;;6.82;4.68;;;;;;;24.73;36.57;98995.22;4828190;29;20086;-80
2021/07/12 09:11:31;;;;;;;9.82;4.65;;;;;;;25.58;35.29;99022.84;4843142;29;20056;-81
2021/07/12 09:14:07;;;;;;;7.43;4.93;;;;;;;26.13;34.87;99022.78;4843929;29;20045;-79
2021/07/12 09:16:37;;;;;;;6.65;4.70;;;;;;;26.60;32.90;99013.94;4842243;29;20128;-79
2021/07/12 09:19:04;;;;;;;9.45;4.93;;;;;;;26.65;31.70;99008.59;4827100;29;20423;-78
2021/07/12 09:22:01;;;;;;;;;;;;;;;;;;;;;
2021/07/12 09:25:08;;;;;;;;;;;;;;;;;;;;;
2021/07/12 09:27:59;;;;;;;13.80;5.68;;;;;;;25.94;32.36;99017.59;4846584;29;20505;-77
2021/07/12 09:30:37;;;;;;;6.22;4.30;;;;;;;26.45;32.90;98997.06;4831994;29;20068;-79
2021/07/12 09:33:32;;;;;;;6.72;4.57;;;;;;;26.69;31.23;99004.28;4836519;29;20057;-78
2021/07/12 09:36:19;;;;;;;7.43;4.35;;;;;;;27.05;32.65;98991.47;4829811;29;20534;-79
2021/07/12 09:38:53;;;;;;;9.20;4.80;;;;;;;27.02;32.43;98961.78;4829674;29;20517;-79
2021/07/12 09:41:32;;;;;;;6.00;5.13;;;;;;;27.04;31.76;98995.25;4831513;29;20053;-78
2021/07/12 09:44:16;;;;;;;5.60;4.60;;;;;;;27.10;32.46;99014.38;4830554;29;20545;-80
2021/07/12 09:46:52;;;;;;;5.20;4.50;;;;;;;27.19;32.34;99025.84;4818122;29;20053;-77
2021/07/12 09:49:39;;;;;;;6.93;4.65;;;;;;;26.81;32.08;98980.47;4821585;29;20052;-78
2021/07/12 09:52:11;;;;;;;8.68;4.15;;;;;;;27.24;31.77;98984.81;4829405;29;20056;-78
2021/07/12 09:54:39;;;;;;;4.70;4.22;;;;;;;27.87;30.78;99009.78;4844660;29;20076;-79
2021/07/12 09:57:20;;;;;;;7.85;4.55;;;;;;;28.12;31.72;98998.47;4829238;29;20053;-79
2021/07/12 10:00:03;;;;;;;9.25;5.10;;;;;;;28.61;31.02;99004.34;4828768;29;20132;-78
2021/07/12 10:02:42;;;;;;;8.93;4.30;;;;;;;28.41;29.62;98966.34;4860911;29;20045;-80
2021/07/12 10:05:14;;;;;;;4.47;4.07;;;;;;;28.72;28.69;98975.94;4860333;29;20591;-79
2021/07/12 10:07:41;;;;;;;4.88;4.47;;;;;;;28.69;28.59;98968.19;4844796;29;20076;-79
2021/07/12 10:10:16;;;;;;;7.18;4.97;;;;;;;28.77;28.33;98965.88;4844993;29;20049;-78
2021/07/12 10:12:48;;;;;;;6.55;4.45;;;;;;;28.92;27.09;98972.69;4859752;29;20045;-78
2021/07/12 10:15:23;;;;;;;6.90;4.25;;;;;;;29.42;26.86;98960.78;4860002;29;20132;-79
2021/07/12 10:18:11;;;;;;;6.28;4.22;;;;;;;28.89;28.34;98973.22;4859336;29;20049;-79
2021/07/12 10:21:12;;;;;;;7.70;4.70;;;;;;;28.17;29.72;98966.44;4868375;29;20451;-78
2021/07/12 10:23:59;;;;;;;6.38;4.47;;;;;;;27.26;30.94;98971.66;4861427;29;20500;-83
2021/07/12 10:26:54;;;;;;;4.70;4.15;;;;;;;26.59;32.90;99002.16;4849965;29;20065;-81
2021/07/12 10:29:35;;;;;;;4.90;4.40;;;;;;;26.80;32.30;98954.13;4857244;29;20156;-82
2021/07/12 10:32:07;;;;;;;9.65;7.03;;;;;;;27.92;31.50;98974.19;4830151;29;20121;-80
2021/07/12 10:34:41;;;;;;;7.68;4.82;;;;;;;28.74;29.57;98977.38;4832177;29;20164;-81
2021/07/12 10:37:19;;;;;;;6.13;4.35;;;;;;;29.14;28.07;98992.88;4847679;29;20109;-81
2021/07/12 10:40:28;;;;;;;;;;;;;;;;;;;;;
2021/07/12 10:43:05;;;;;;;11.63;4.65;;;;;;;29.56;28.07;98988.78;4848558;29;20070;-79
2021/07/12 10:45:41;;;;;;;5.97;4.32;;;;;;;30.10;27.77;98988.94;4831226;29;20045;-78
2021/07/12 10:48:09;;;;;;;6.82;4.25;;;;;;;30.41;26.73;99003.88;4828350;29;20061;-75
2021/07/12 10:50:44;;;;;;;7.35;4.45;;;;;;;30.18;26.50;98997.59;4828463;29;20054;-77
2021/07/12 10:53:15;;;;;;;5.05;4.22;;;;;;;30.54;26.62;98999.88;4858476;29;20450;-77
2021/07/12 10:56:08;;;;;;;7.85;4.45;;;;;;;30.89;25.90;98988.34;4828385;29;20053;-79
2021/07/12 10:58:39;;;;;;;4.50;4.15;;;;;;;30.51;26.64;98979.19;4858525;29;20060;-80
2021/07/12 11:01:16;;;;;;;5.28;4.78;;;;;;;29.33;27.57;98979.66;4829264;29;20057;-79
2021/07/12 11:03:48;;;;;;;8.25;5.10;;;;;;;28.97;27.96;98981.88;4843336;29;20046;-79
2021/07/12 11:06:33;;;;;;;;;;;;;;;;;;;;;
2021/07/12 11:10:38;;;;;;;;;;;;;;;;;;;;;
2021/07/12 11:13:49;;;;;;;5.40;4.30;;;;;;;30.00;27.11;98978.59;4842191;29;20061;-84
2021/07/12 11:17:21;;;;;;;13.65;9.93;;;;;;;30.41;27.00;98963.34;4796613;29;20060;-84
2021/07/12 11:20:40;;;;;;;6.25;4.40;;;;;;;30.92;25.96;98965.75;4839705;29;20053;-85
2021/07/12 11:23:40;;;;;;;7.70;4.28;;;;;;;31.09;25.76;98993.19;4837621;29;20053;-81
2021/07/12 11:26:23;;;;;;;8.00;5.45;;;;;;;31.41;25.44;98999.50;4842183;29;20486;-79
2021/07/12 11:28:51;;;;;;;7.50;5.20;;;;;;;31.81;25.76;98998.03;4857244;29;20090;-79
2021/07/12 11:31:51;;;;;;;6.10;4.82;;;;;;;31.82;25.85;98991.44;4845613;29;20049;-78
2021/07/12 11:34:27;;;;;;;6.85;4.40;;;;;;;31.47;26.27;98980.19;4842789;29;20106;-78
2021/07/12 11:36:56;;;;;;;6.55;4.28;;;;;;;30.92;27.06;98990.59;4826876;29;20057;-77
2021/07/12 11:39:24;;;;;;;6.57;4.55;;;;;;;31.20;26.60;98990.22;4860412;29;20045;-77
2021/07/12 11:41:50;;;;;;;6.47;4.15;;;;;;;30.71;26.25;98984.88;4829714;29;20501;-77
2021/07/12 11:44:17;;;;;;;9.93;4.30;;;;;;;29.88;27.66;98998.03;4844461;29;20145;-77
2021/07/12 11:46:43;;;;;;;6.32;4.53;;;;;;;30.46;27.40;98992.91;4829533;29;20132;-78
2021/07/12 11:49:15;;;;;;;6.18;4.63;;;;;;;31.34;26.54;98987.88;4844781;29;20576;-80
2021/07/12 11:51:42;;;;;;;11.70;4.50;;;;;;;32.57;25.21;99002.16;4829412;29;20052;-79
2021/07/12 11:54:19;;;;;;;7.30;3.92;;;;;;;32.27;24.13;99002.91;4814647;29;20101;-78
2021/07/12 11:57:05;;;;;;;4.30;3.90;;;;;;;32.13;24.86;98999.84;4829700;29;20110;-78
2021/07/12 11:59:37;;;;;;;7.75;4.13;;;;;;;32.25;24.76;99007.91;4844601;29;20132;-78
2021/07/12 12:02:08;;;;;;;6.10;4.43;;;;;;;32.71;24.40;98994.16;4844201;29;20051;-77
2021/07/12 12:04:55;;;;;;;5.63;4.45;;;;;;;32.87;24.49;98990.28;4844681;29;20060;-77
2021/07/12 12:07:33;;;;;;;5.63;4.25;;;;;;;33.08;24.76;99000.25;4845624;29;20105;-78
2021/07/12 12:10:00;;;;;;;;;;;;;;;32.87;24.86;98996.66;4860054;29;20101;-78
2021/07/12 12:12:29;;;;;;;9.68;4.20;;;;;;;33.46;24.49;98998.00;4828498;29;20527;-79
2021/07/12 12:15:08;;;;;;;7.70;4.53;;;;;;;33.70;23.81;98995.44;4843742;29;20473;-78
2021/07/12 12:17:38;;;;;;;7.88;4.68;;;;;;;33.49;23.67;98955.88;4859043;29;20052;-78
2021/07/12 12:20:08;;;;;;;6.03;4.40;;;;;;;33.30;24.16;98982.50;4843988;29;20579;-80
2021/07/12 12:22:34;;;;;;;7.40;4.15;;;;;;;33.82;23.40;98959.09;4859388;29;20088;-78
2021/07/12 12:25:00;;;;;;;6.25;4.90;;;;;;;34.41;22.14;98955.41;4860385;29;20060;-80
2021/07/12 12:27:26;;;;;;;7.57;4.20;;;;;;;34.72;22.10;98971.88;4828705;29;20079;-82
2021/07/12 12:29:52;;;;;;;7.40;4.15;;;;;;;34.16;23.04;98961.97;4828641;29;20605;-80
2021/07/12 12:32:31;;;;;;;5.93;4.18;;;;;;;34.45;22.85;98975.09;4859006;29;20517;-80
2021/07/12 12:34:59;;;;;;;8.48;4.00;;;;;;;34.77;22.14;98980.16;4813941;29;20050;-78
2021/07/12 12:37:35;;;;;;;7.25;4.30;;;;;;;34.36;22.55;98974.06;4860448;29;20045;-78
2021/07/12 12:48:35;;;;;;;7.32;4.57;;;;;;;33.73;22.79;98939.41;4803890;29;20050;-78
2021/07/12 12:51:46;;;;;;;;;;;;;;;;;;;;;
2021/07/12 12:55:10;;;;;;;6.43;3.80;;;;;;;33.58;23.39;98951.41;4810676;29;20599;-83
2021/07/12 12:57:47;;;;;;;7.57;4.30;;;;;;;33.62;23.29;98942.53;4777521;29;20046;-80
2021/07/12 13:04:22;;;;;;;10.05;4.38;;;;;;;30.31;27.40;98927.41;4818871;29;20065;-79
2021/07/12 13:07:32;;;;;;;8.02;5.40;;;;;;;32.37;25.78;98953.16;4844467;29;20394;-78
2021/07/12 13:10:54;;;;;;;6.38;4.13;;;;;;;33.45;25.86;98946.44;4838151;29;20053;-80
2021/07/12 13:14:25;;;;;;;7.38;4.90;;;;;;;34.35;25.58;98956.59;4817314;29;20053;-78
2021/07/12 13:18:01;;;;;;;7.13;4.47;;;;;;;35.48;21.71;98985.03;4841642;29;20109;-84
2021/07/12 13:21:32;;;;;;;;;;;;;;;;;;;;;
2021/07/12 13:24:56;;;;;;;;;;;;;;;;;;;;;
2021/07/12 13:28:26;;;;;;;7.25;4.25;;;;;;;36.12;21.76;98966.22;4835606;29;20421;-79
2021/07/12 13:31:35;;;;;;;10.93;4.50;;;;;;;37.03;20.65;98973.44;4828097;29;20136;-78
2021/07/12 13:34:55;;;;;;;6.10;4.15;;;;;;;36.86;19.85;98991.53;4844544;29;20069;-83
2021/07/12 13:38:05;;;;;;;;;;;;;;;;;;;;;
2021/07/12 13:40:59;;;;;;;9.15;3.80;;;;;;;36.46;19.53;98949.28;4827765;29;20054;-79
2021/07/12 13:52:29;;;;;;;9.50;5.35;;;;;;;35.33;22.50;98943.53;4786297;30;20230;-80
2021/07/12 13:56:55;;;;;;;4.22;3.83;;;;;;;35.82;20.78;98952.69;4768900;30;20084;-78
2021/07/12 14:00:14;;;;;;;7.78;4.63;;;;;;;35.70;20.34;98965.06;4732316;30;20059;-80
2021/07/12 14:04:30;;;;;;;;;;;;;;;;;;;;;
2021/07/12 14:12:22;;;;;;;4.95;4.10;;;;;;;36.43;19.55;98977.69;4750824;30;20064;-81
2021/07/12 14:16:42;;;;;;;;;;;;;;;;;;;;;
2021/07/12 14:25:12;;;;;;;;;;;;;;;;;;;;;
2021/07/12 14:28:45;;;;;;;6.47;4.07;;;;;;;35.91;21.26;98957.28;4699324;30;20077;-80
2021/07/12 14:32:07;;;;;;;7.93;3.75;;;;;;;34.70;21.26;98943.56;4754336;30;20062;-82
2021/07/12 14:48:13;;;;;;;6.65;3.22;;;;;;;34.76;21.03;98970.19;4657075;30;20067;-82
2021/07/12 15:00:02;;;;;;;5.55;3.88;;;;;;;36.74;19.31;99010.66;4757641;30;20058;-81
2021/07/12 15:12:28;;;;;;;;;;;;;;;;;;;;;
2021/07/12 15:30:27;;;;;;;;;;;;;;;;;;;;;
2021/07/12 16:00:39;;;;;;;4.28;3.15;;;;;;;27.71;29.83;98990.22;4626647;30;20121;-80
2021/07/12 16:03:20;;;;;;;5.63;3.60;;;;;;;27.13;30.95;99021.31;4656450;30;20144;-81
2021/07/12 16:07:26;;;;;;;;;;;;;;;;;;;;;
2021/07/12 16:16:01;;;;;;;;;;;;;;;;;;;;;
2021/07/12 16:20:03;;;;;;;;;;;;;;;;;;;;;
2021/07/12 16:23:19;;;;;;;5.78;3.72;;;;;;;23.67;37.23;98998.56;4815980;29;20066;-81
2021/07/12 16:29:50;;;;;;;7.88;3.58;;;;;;;23.31;38.15;99029.88;4823783;29;20146;-86
2021/07/12 16:33:43;;;;;;;8.77;3.90;;;;;;;22.86;38.93;99007.03;4855389;29;20061;-84
2021/07/12 16:36:16;;;;;;;8.60;4.65;;;;;;;22.82;39.30;99042.06;4822417;29;20064;-80
2021/07/12 16:38:46;;;;;;;4.13;3.72;;;;;;;22.62;39.87;99025.69;4812365;29;20186;-81
2021/07/12 16:41:14;;;;;;;6.40;3.85;;;;;;;22.60;40.28;99035.94;4776544;29;20050;-79
2021/07/12 16:43:42;;;;;;;7.00;4.00;;;;;;;22.65;40.03;99046.25;4777424;29;20299;-79
2021/07/12 16:46:11;;;;;;;14.27;4.00;;;;;;;22.40;40.40;99027.75;4822656;29;20049;-80
2021/07/12 16:48:38;;;;;;;7.35;4.25;;;;;;;22.12;40.54;99008.00;4826635;29;20674;-80
2021/07/12 16:51:05;;;;;;;8.63;3.85;;;;;;;22.33;40.52;99054.13;4793671;29;20140;-78
2021/07/12 16:53:33;;;;;;;7.63;4.05;;;;;;;22.22;41.20;99047.41;4793012;29;20049;-81
2021/07/12 16:55:59;;;;;;;8.98;3.92;;;;;;;22.11;41.49;99049.84;4793508;29;20152;-79
2021/07/12 16:58:26;;;;;;;5.30;3.63;;;;;;;22.07;41.43;99047.53;4811604;29;20513;-80
2021/07/12 17:00:52;;;;;;;4.07;3.55;;;;;;;21.93;41.89;99040.38;4813465;29;20050;-81
2021/07/12 17:03:19;;;;;;;6.75;3.42;;;;;;;21.91;42.00;99056.06;4799241;29;20385;-78
2021/07/12 17:05:45;;;;;;;4.03;3.72;;;;;;;21.85;41.99;99053.28;4813226;29;20085;-77
2021/07/12 17:08:11;;;;;;;5.53;3.60;;;;;;;21.80;42.05;99048.47;4829323;29;20509;-77
2021/07/12 17:10:37;;;;;;;9.13;3.50;;;;;;;21.75;42.21;99046.38;4813674;29;20097;-77
2021/07/12 17:13:03;;;;;;;4.10;3.35;;;;;;;21.79;42.15;99060.41;4813485;29;20050;-77
2021/07/12 17:15:30;;;;;;;4.78;3.25;;;;;;;21.62;42.66;99046.28;4813602;29;20098;-77
2021/07/12 17:17:55;;;;;;;8.52;3.38;;;;;;;21.64;42.80;99060.53;4843680;29;20605;-76
2021/07/12 17:20:22;;;;;;;5.45;3.13;;;;;;;21.52;43.00;99057.53;4813922;29;20145;-78
2021/07/12 17:22:48;;;;;;;5.97;3.65;;;;;;;21.42;43.36;99062.50;4828219;29;20521;-77
2021/07/12 17:25:14;;;;;;;7.30;3.10;;;;;;;21.41;43.21;99066.25;4814225;29;20116;-76
2021/07/12 17:27:40;;;;;;;4.03;3.40;;;;;;;21.19;43.73;99062.72;4831326;29;20053;-77
2021/07/12 17:30:07;;;;;;;5.40;3.42;;;;;;;21.21;43.67;99067.94;4846724;29;20509;-77
2021/07/12 17:32:33;;;;;;;4.88;3.00;;;;;;;21.19;43.96;99073.59;4831612;29;20046;-78
2021/07/12 17:34:59;;;;;;;6.32;3.42;;;;;;;21.09;44.13;99073.94;4831368;29;20465;-77
2021/07/12 17:37:27;;;;;;;8.43;3.30;;;;;;;21.03;44.29;99063.88;4815498;29;20180;-79
2021/07/12 17:39:53;;;;;;;3.47;3.13;;;;;;;20.93;44.39;99070.66;4847001;29;20076;-77
2021/07/12 17:42:19;;;;;;;7.85;3.10;;;;;;;20.89;44.42;99067.50;4831205;29;20057;-77
2021/07/12 17:44:47;;;;;;;4.55;3.40;;;;;;;20.91;44.42;99073.59;4817307;29;20060;-76
2021/07/12 17:47:13;;;;;;;4.95;2.70;;;;;;;20.91;44.46;99070.00;4830893;29;20589;-76
2021/07/12 17:49:39;;;;;;;5.50;3.50;;;;;;;20.85;44.23;99067.06;4861790;29;20053;-76
2021/07/12 17:52:05;;;;;;;6.72;3.08;;;;;;;20.83;44.33;99073.72;4846028;29;20141;-77
2021/07/12 17:54:31;;;;;;;6.30;3.00;;;;;;;20.86;44.57;99073.31;4861645;29;20509;-77
2021/07/12 17:56:57;;;;;;;4.60;3.20;;;;;;;20.76;44.54;99070.09;4830968;29;20060;-76
2021/07/12 17:59:23;;;;;;;4.40;3.50;;;;;;;20.71;44.84;99076.13;4831070;29;20093;-80
2021/07/12 18:01:51;;;;;;;4.25;3.03;;;;;;;20.63;45.09;99064.53;4815998;29;20045;-77
2021/07/12 18:04:17;;;;;;;3.50;3.20;;;;;;;20.66;45.06;99072.31;4846564;29;20518;-77
2021/07/12 18:06:43;;;;;;;7.90;3.10;;;;;;;20.65;45.00;99084.19;4830980;29;20136;-76
2021/07/12 18:09:09;;;;;;;5.97;3.65;;;;;;;20.65;45.13;99074.19;4830500;29;20045;-78
2021/07/12 18:11:35;;;;;;;3.88;2.90;;;;;;;20.68;45.11;99064.78;4845798;29;20103;-78
2021/07/12 18:14:01;;;;;;;8.93;3.33;;;;;;;20.69;44.91;99069.22;4815857;29;20061;-78
2021/07/12 18:16:27;;;;;;;3.78;3.10;;;;;;;20.71;44.87;99056.25;4861809;29;20049;-78
2021/07/12 18:18:54;;;;;;;3.50;3.20;;;;;;;20.68;45.01;99053.94;4846248;29;20054;-77
2021/07/12 18:21:20;;;;;;;3.03;2.72;;;;;;;20.65;44.94;99062.47;4831061;29;20053;-79
2021/07/12 18:23:46;;;;;;;3.30;3.00;;;;;;;20.65;45.07;99060.63;4861167;29;20073;-78
2021/07/12 18:26:12;;;;;;;4.15;2.88;;;;;;;20.55;45.42;99065.53;4830869;29;20049;-77
2021/07/12 18:28:38;;;;;;;5.13;3.10;;;;;;;20.55;45.30;99055.50;4845454;29;20045;-80
2021/07/12 18:31:04;;;;;;;7.70;3.15;;;;;;;20.51;45.30;99054.19;4846409;29;20083;-79
2021/07/12 18:33:31;;;;;;;3.88;3.00;;;;;;;20.46;45.43;99059.34;4861910;29;20084;-79
2021/07/12 18:35:58;;;;;;;7.60;3.28;;;;;;;20.36;46.01;99062.38;4845938;29;20405;-82
2021/07/12 18:38:24;;;;;;;21.45;3.08;;;;;;;20.33;46.06;99060.03;4830256;29;20060;-81
2021/07/12 18:40:50;;;;;;;4.15;2.67;;;;;;;20.25;46.33;99062.03;4860697;29;20047;-82
2021/07/12 18:43:15;;;;;;;8.18;2.85;;;;;;;20.23;46.30;99066.81;4829658;29;20055;-82
2021/07/12 18:45:41;;;;;;;3.22;2.92;;;;;;;20.01;46.67;99052.34;4860367;29;20540;-80
2021/07/12 18:48:08;;;;;;;6.38;3.10;;;;;;;20.07;46.50;99062.44;4861780;29;20061;-81
2021/07/12 18:50:34;;;;;;;4.25;2.67;;;;;;;19.99;46.88;99068.81;4860660;29;20042;-80
2021/07/12 18:53:00;;;;;;;3.95;2.85;;;;;;;19.93;46.80;99053.28;4860712;29;20409;-82
2021/07/12 18:55:26;;;;;;;2.80;2.60;;;;;;;19.89;46.92;99063.69;4846909;29;20053;-81
2021/07/12 18:57:52;;;;;;;4.15;2.58;;;;;;;19.83;47.26;99064.47;4844356;29;20053;-83
2021/07/12 19:00:21;;;;;;;2.63;2.40;;;;;;;19.76;47.18;99058.09;4845304;29;20056;-82
2021/07/12 19:02:47;;;;;;;4.68;2.90;;;;;;;19.77;47.55;99067.09;4815221;29;20196;-81
2021/07/12 19:05:13;;;;;;;6.88;2.30;;;;;;;19.67;48.20;99066.53;4845374;29;20080;-80
2021/07/12 19:07:39;;;;;;;2.70;2.45;;;;;;;19.61;48.17;99068.94;4860701;29;20352;-81
2021/07/12 19:10:06;;;;;;;3.15;2.63;;;;;;;19.49;48.63;99069.59;4861947;29;20184;-82
2021/07/12 19:12:32;;;;;;;2.97;2.40;;;;;;;19.43;48.78;99071.16;4830358;29;20057;-81
2021/07/12 19:14:59;;;;;;;7.53;2.97;;;;;;;19.41;48.62;99056.97;4845317;29;20052;-82
2021/07/12 19:17:31;;;;;;;3.28;2.90;;;;;;;19.48;48.15;99060.59;4831539;29;20046;-81
2021/07/12 19:19:57;;;;;;;10.35;2.85;;;;;;;19.52;47.86;99058.34;4844730;29;20088;-81
2021/07/12 19:22:24;;;;;;;5.07;2.60;;;;;;;19.46;48.07;99056.41;4829093;29;20045;-82
2021/07/12 19:24:50;;;;;;;4.50;2.80;;;;;;;19.40;48.79;99061.53;4829896;29;20116;-81
2021/07/12 19:27:19;;;;;;;8.53;2.10;;;;;;;19.42;49.05;99058.66;4815683;29;20049;-83
2021/07/12 19:29:45;;;;;;;4.10;2.78;;;;;;;19.42;48.98;99059.50;4800373;29;20077;-81
2021/07/12 19:32:11;;;;;;;3.28;2.10;;;;;;;19.44;48.67;99064.72;4826935;29;20156;-82
2021/07/12 19:34:37;;;;;;;4.80;2.60;;;;;;;19.40;48.90;99053.41;4827884;29;20140;-83
2021/07/12 19:37:03;;;;;;;3.53;2.42;;;;;;;19.45;48.53;99062.88;4828092;29;20573;-80
2021/07/12 19:39:29;;;;;;;4.47;2.33;;;;;;;19.41;48.92;99057.81;4842227;29;20054;-80
2021/07/12 19:41:56;;;;;;;2.47;2.28;;;;;;;19.35;48.95;99046.88;4811823;29;20576;-81
2021/07/12 19:44:25;;;;;;;2.67;2.35;;;;;;;19.25;49.02;99039.00;4796806;29;20054;-80
2021/07/12 19:47:00;;;;;;;2.50;2.30;;;;;;;19.27;49.19;99049.69;4831203;29;20048;-80
2021/07/12 19:49:41;;;;;;;4.70;2.55;;;;;;;19.30;49.33;99060.16;4830199;29;20081;-80
2021/07/12 19:52:14;;;;;;;2.65;2.42;;;;;;;19.30;49.22;99060.16;4831941;29;20045;-81
2021/07/12 19:54:40;;;;;;;3.65;2.38;;;;;;;19.18;49.65;99062.44;4830988;29;20058;-81
2021/07/12 19:57:06;;;;;;;4.55;2.40;;;;;;;19.15;49.86;99058.25;4830269;29;20209;-82
2021/07/12 19:59:32;;;;;;;3.90;2.42;;;;;;;19.16;49.62;99062.66;4814768;29;20049;-81
2021/07/12 20:02:01;;;;;;;3.40;2.28;;;;;;;19.14;49.68;99059.28;4844995;29;20105;-81
2021/07/12 20:04:27;;;;;;;;;;;;;;;19.14;50.03;99056.59;4845127;29;20097;-81
2021/07/12 20:06:53;;;;;;;3.80;2.78;;;;;;;19.09;50.17;99056.28;4859460;29;19920;-81
2021/07/12 20:09:19;;;;;;;3.45;2.40;;;;;;;19.11;49.83;99051.53;4799422;29;20048;-81
2021/07/12 20:11:45;;;;;;;5.03;2.35;;;;;;;19.14;50.18;99056.59;4860852;29;20102;-80
2021/07/12 20:14:11;;;;;;;2.53;2.20;;;;;;;19.17;49.99;99044.50;4815115;29;20084;-82
2021/07/12 20:16:42;;;;;;;3.78;2.05;;;;;;;19.19;49.85;99055.19;4814230;29;20054;-82
2021/07/12 20:19:08;;;;;;;4.00;2.13;;;;;;;19.27;49.51;99052.38;4831615;29;20397;-82
2021/07/12 20:21:33;;;;;;;3.90;2.33;;;;;;;19.31;49.53;99046.41;4843847;29;20077;-81
2021/07/12 20:24:00;;;;;;;7.68;2.13;;;;;;;19.34;49.36;99046.03;4844213;29;20461;-82
2021/07/12 20:26:26;;;;;;;7.72;5.07;;;;;;;19.36;49.48;99049.38;4813910;29;20049;-82
2021/07/12 20:28:52;;;;;;;3.25;2.15;;;;;;;19.42;49.43;99050.53;4829389;29;20130;-84
2021/07/12 20:31:18;;;;;;;6.10;2.08;;;;;;;19.44;49.57;99045.75;4859562;29;20498;-82
2021/07/12 20:33:44;;;;;;;5.22;2.20;;;;;;;19.46;49.45;99048.28;4844113;29;20050;-82
2021/07/12 20:36:10;;;;;;;4.03;2.28;;;;;;;19.48;49.51;99052.47;4860034;29;20042;-82
2021/07/12 20:38:36;;;;;;;8.10;2.75;;;;;;;19.46;49.47;99040.97;4838686;29;20045;-83
2021/07/12 20:41:02;;;;;;;4.07;2.25;;;;;;;19.38;49.83;99046.50;4811408;29;20042;-82
2021/07/12 20:43:28;;;;;;;4.07;2.10;;;;;;;19.29;50.18;99044.91;4842394;29;20144;-82
2021/07/12 20:45:54;;;;;;;3.17;2.58;;;;;;;19.26;50.41;99045.28;4810906;29;20095;-84
2021/07/12 20:48:26;;;;;;;3.30;2.42;;;;;;;19.24;50.66;99045.47;4826951;29;20050;-83
2021/07/12 20:50:54;;;;;;;3.35;2.00;;;;;;;19.14;50.82;99040.31;4827851;29;20144;-83
2021/07/12 20:53:20;;;;;;;4.90;2.70;;;;;;;19.10;50.89;99033.56;4841346;29;20049;-81
2021/07/12 20:55:46;;;;;;;6.20;2.35;;;;;;;19.09;51.56;99039.19;4811117;29;20054;-81
2021/07/12 20:58:12;;;;;;;6.13;2.00;;;;;;;19.04;51.31;99039.75;4830115;29;20050;-84
2021/07/12 21:00:38;;;;;;;4.65;2.15;;;;;;;19.03;51.89;99048.03;4833419;29;20077;-83
2021/07/12 21:03:05;;;;;;;4.35;2.25;;;;;;;18.91;51.97;99029.53;4834493;29;20751;-84
2021/07/12 21:05:31;;;;;;;6.28;2.13;;;;;;;18.91;52.41;99042.22;4828172;29;20096;-81
2021/07/12 21:08:00;;;;;;;3.13;2.50;;;;;;;18.90;52.42;99044.09;4812060;29;20046;-82
2021/07/12 21:10:26;;;;;;;3.08;2.10;;;;;;;18.88;52.67;99046.16;4810603;29;20050;-82
2021/07/12 21:12:52;;;;;;;4.97;1.90;;;;;;;18.85;52.87;99040.28;4841172;29;20121;-82
2021/07/12 21:15:19;;;;;;;5.38;2.30;;;;;;;18.81;53.01;99026.25;4810535;29;20478;-83
2021/07/12 21:17:45;;;;;;;3.03;2.38;;;;;;;18.84;53.18;99035.84;4810754;29;20061;-81
2021/07/12 21:20:12;;;;;;;2.20;2.10;;;;;;;18.78;54.00;99042.88;4825667;29;20094;-81
2021/07/12 21:22:38;;;;;;;2.78;2.30;;;;;;;18.68;53.99;99032.25;4825567;29;20088;-82
2021/07/12 21:25:05;;;;;;;3.33;2.40;;;;;;;18.66;54.29;99047.00;4809764;29;20428;-82
2021/07/12 21:27:31;;;;;;;3.05;2.35;;;;;;;18.65;54.37;99057.00;4810289;29;20042;-82
2021/07/12 21:29:59;;;;;;;4.50;2.20;;;;;;;18.61;54.29;99050.22;4825303;29;20454;-82
2021/07/12 21:32:25;;;;;;;3.50;2.20;;;;;;;18.55;55.00;99034.75;4827387;29;20076;-81
2021/07/12 21:34:51;;;;;;;3.95;2.10;;;;;;;18.59;54.57;99035.22;4841784;29;20050;-82
2021/07/12 21:37:17;;;;;;;4.50;2.40;;;;;;;18.51;55.53;99052.38;4826176;29;20080;-82
2021/07/12 21:39:43;;;;;;;1.95;1.75;;;;;;;18.47;55.60;99048.34;4810465;29;20057;-81
2021/07/12 21:42:09;;;;;;;6.70;2.17;;;;;;;18.42;55.61;99038.03;4810709;29;20130;-79
2021/07/12 21:44:35;;;;;;;2.72;2.30;;;;;;;18.42;55.67;99029.91;4810409;29;20107;-79
2021/07/12 21:47:01;;;;;;;6.47;2.28;;;;;;;18.42;55.62;99042.59;4844006;29;20129;-79
2021/07/12 21:49:26;;;;;;;6.57;2.45;;;;;;;18.41;55.90;99038.22;4845157;29;20057;-81
2021/07/12 21:51:53;;;;;;;2.63;2.33;;;;;;;18.29;56.45;99032.38;4843542;29;20073;-80
2021/07/12 21:54:20;;;;;;;2.55;2.20;;;;;;;18.20;56.58;99020.78;4828754;29;20069;-82
2021/07/12 21:56:46;;;;;;;4.65;2.15;;;;;;;18.27;56.71;99030.88;4828395;29;20084;-82
2021/07/12 21:59:12;;;;;;;6.68;2.33;;;;;;;18.29;56.60;99035.09;4813037;29;20369;-79
2021/07/12 22:01:38;;;;;;;6.70;2.92;;;;;;;18.28;56.70;99027.13;4842999;29;20133;-79
2021/07/12 22:04:04;;;;;;;5.55;2.67;;;;;;;18.25;56.85;99022.13;4827760;29;20505;-81
2021/07/12 22:06:32;;;;;;;3.63;2.40;;;;;;;18.23;56.90;99029.56;4827865;29;20053;-81
2021/07/12 22:08:58;;;;;;;2.38;2.17;;;;;;;18.16;57.43;99024.00;4828393;29;20571;-80
2021/07/12 22:11:24;;;;;;;4.13;2.50;;;;;;;18.10;57.55;99030.16;4843067;29;20434;-81
2021/07/12 22:13:50;;;;;;;3.13;2.28;;;;;;;17.99;58.03;99034.09;4843129;29;20094;-81
2021/07/12 22:16:16;;;;;;;4.82;2.33;;;;;;;17.96;57.96;99032.59;4828310;29;20054;-80
2021/07/12 22:18:42;;;;;;;4.60;2.50;;;;;;;17.96;57.90;99026.34;4828113;29;20121;-80
2021/07/12 22:21:09;;;;;;;3.65;2.30;;;;;;;17.96;58.08;99042.56;4827595;29;20493;-81
2021/07/12 22:23:36;;;;;;;2.55;2.35;;;;;;;17.93;58.65;99037.50;4842732;29;20094;-82
2021/07/12 22:26:03;;;;;;;3.13;2.63;;;;;;;17.95;58.34;99044.44;4827833;29;20501;-81
2021/07/12 22:28:29;;;;;;;3.83;2.47;;;;;;;17.97;58.22;99044.25;4843197;29;20501;-81
2021/07/12 22:30:55;;;;;;;5.32;2.70;;;;;;;17.89;59.03;99033.47;4828026;29;20041;-80
2021/07/12 22:33:25;;;;;;;8.55;2.45;;;;;;;17.92;58.42;99044.78;4843515;29;20048;-81
2021/07/12 22:35:51;;;;;;;;;;;;;;;17.98;58.16;99045.94;4828743;29;20061;-81
2021/07/12 22:38:17;;;;;;;2.88;2.30;;;;;;;17.91;58.65;99031.44;4812753;29;19928;-81
2021/07/12 22:40:43;;;;;;;6.35;2.88;;;;;;;17.91;58.51;99036.84;4827834;29;20062;-85
2021/07/12 22:43:09;;;;;;;3.70;2.72;;;;;;;17.93;58.72;99035.63;4843369;29;20050;-84
2021/07/12 22:45:35;;;;;;;4.22;2.78;;;;;;;17.88;58.89;99031.78;4828295;29;20050;-84
2021/07/12 22:48:01;;;;;;;7.18;2.40;;;;;;;17.94;58.54;99039.19;4828113;29;20041;-83
2021/07/12 22:50:35;;;;;;;3.35;2.60;;;;;;;18.00;58.67;99041.19;4827324;29;20398;-83
2021/07/12 22:53:04;;;;;;;2.53;2.33;;;;;;;17.98;58.78;99037.84;4828481;29;20494;-83
2021/07/12 22:55:30;;;;;;;4.67;2.40;;;;;;;18.03;58.41;99048.94;4827270;29;20046;-83
2021/07/12 22:57:56;;;;;;;2.92;2.50;;;;;;;18.01;58.42;99050.13;4827364;29;20313;-78
2021/07/12 23:00:23;;;;;;;2.78;2.50;;;;;;;18.04;58.47;99053.34;4827227;29;20549;-82